This is the latest recevied weather packets stored in our database for station/object N5PUP-13. If no packets are shown the sender has not sent any weather packets the latest 10 day(s).
| Time | Temp. | Humidity | Pressure | Rain* | Wind** | Luminosity | Snow |
|---|---|---|---|---|---|---|---|
| 1787923800 | 25.56° C | 57% | 1021.6 hPa | 0 mm | - | - | - |
| 1787923500 | 25.56° C | 55% | 1021.6 hPa | 0 mm | - | - | - |
| 1787923200 | 25.56° C | 54% | 1021.5 hPa | 0 mm | - | - | - |
| 1787922900 | 25.56° C | 56% | 1021.3 hPa | 0 mm | - | - | - |
| 1787922600 | 25° C | 56% | 1021.2 hPa | 0 mm | - | - | - |
| 1787922300 | 25° C | 56% | 1021 hPa | 0 mm | - | - | - |
| 1787922000 | 25° C | 57% | 1021 hPa | 0 mm | - | - | - |
| 1787921700 | 24.44° C | 57% | 1021 hPa | 0 mm | - | - | - |
| 1787921400 | 24.44° C | 58% | 1021.1 hPa | 0 mm | - | - | - |
| 1787921100 | 24.44° C | 59% | 1021.1 hPa | 0 mm | - | - | - |
| 1787920800 | 23.89° C | 59% | 1020.8 hPa | 0 mm | - | - | - |
| 1787920501 | 23.89° C | 59% | 1020.7 hPa | 0 mm | - | - | - |
| 1787920200 | 23.89° C | 59% | 1020.6 hPa | 0 mm | - | - | - |
| 1787919900 | 23.33° C | 60% | 1020.4 hPa | 0 mm | - | - | - |
| 1787919600 | 22.78° C | 63% | 1020.5 hPa | 0 mm | - | - | - |
| 1787919300 | 22.78° C | 64% | 1020.4 hPa | 0 mm | - | - | - |
| 1787919000 | 22.22° C | 65% | 1020.2 hPa | 0 mm | - | - | - |
| 1787918700 | 21.67° C | 69% | 1019.9 hPa | 0 mm | - | - | - |
| 1787918400 | 21.11° C | 71% | 1019.6 hPa | 0 mm | - | - | - |
| 1787918100 | 21.11° C | 72% | 1019.6 hPa | 0 mm | - | - | - |
| 1787917800 | 21.11° C | 71% | 1019.8 hPa | 0 mm | - | - | - |
| 1787917500 | 21.67° C | 71% | 1020 hPa | 0 mm | - | - | - |
| 1787917200 | 21.11° C | 71% | 1020 hPa | 0 mm | - | - | - |
| 1787916900 | 21.11° C | 72% | 1020.1 hPa | 0 mm | - | - | - |
| 1787916600 | 21.11° C | 72% | 1020.2 hPa | 0 mm | - | - | - |
* Rain latest hour (hover to see other rain measurements)
** Current wind speed in m/s (hover to see current wind gust speed)